sensor_id;sensor_type;location;lat;lon;timestamp;P1;durP1;ratioP1;P2;durP2;ratioP2
31442;SDS011;18065;55.876;9.830;2023-10-09T00:00:26;3.63;;;1.90;;
31442;SDS011;18065;55.876;9.830;2023-10-09T00:03:16;4.93;;;1.70;;
31442;SDS011;18065;55.876;9.830;2023-10-09T00:05:48;2.58;;;1.30;;
31442;SDS011;18065;55.876;9.830;2023-10-09T00:08:19;2.10;;;1.60;;
31442;SDS011;18065;55.876;9.830;2023-10-09T00:10:55;2.40;;;1.48;;
31442;SDS011;18065;55.876;9.830;2023-10-09T00:13:39;3.38;;;1.40;;
31442;SDS011;18065;55.876;9.830;2023-10-09T00:16:17;3.22;;;1.55;;
31442;SDS011;18065;55.876;9.830;2023-10-09T00:18:58;3.53;;;1.52;;
31442;SDS011;18065;55.876;9.830;2023-10-09T00:21:39;3.55;;;1.77;;
31442;SDS011;18065;55.876;9.830;2023-10-09T00:24:08;3.38;;;1.58;;
31442;SDS011;18065;55.876;9.830;2023-10-09T00:26:48;2.97;;;1.63;;
31442;SDS011;18065;55.876;9.830;2023-10-09T00:29:17;2.67;;;1.60;;
31442;SDS011;18065;55.876;9.830;2023-10-09T00:32:06;1.70;;;1.50;;
31442;SDS011;18065;55.876;9.830;2023-10-09T00:34:38;2.13;;;1.58;;
31442;SDS011;18065;55.876;9.830;2023-10-09T00:37:07;2.58;;;1.70;;
31442;SDS011;18065;55.876;9.830;2023-10-09T00:39:41;1.70;;;1.38;;
31442;SDS011;18065;55.876;9.830;2023-10-09T00:42:13;2.15;;;1.50;;
31442;SDS011;18065;55.876;9.830;2023-10-09T00:44:52;2.67;;;1.55;;
31442;SDS011;18065;55.876;9.830;2023-10-09T00:47:24;2.55;;;1.60;;
31442;SDS011;18065;55.876;9.830;2023-10-09T00:50:00;3.65;;;1.65;;
31442;SDS011;18065;55.876;9.830;2023-10-09T00:52:36;2.97;;;1.55;;
31442;SDS011;18065;55.876;9.830;2023-10-09T00:55:15;2.45;;;1.30;;
31442;SDS011;18065;55.876;9.830;2023-10-09T00:57:52;1.50;;;1.40;;
31442;SDS011;18065;55.876;9.830;2023-10-09T01:00:25;2.50;;;1.20;;
31442;SDS011;18065;55.876;9.830;2023-10-09T01:03:14;3.47;;;1.40;;
31442;SDS011;18065;55.876;9.830;2023-10-09T01:05:48;2.83;;;1.65;;
31442;SDS011;18065;55.876;9.830;2023-10-09T01:08:22;2.13;;;1.48;;
31442;SDS011;18065;55.876;9.830;2023-10-09T01:11:10;3.40;;;1.58;;
31442;SDS011;18065;55.876;9.830;2023-10-09T01:13:43;1.42;;;1.30;;
31442;SDS011;18065;55.876;9.830;2023-10-09T01:16:25;3.30;;;1.20;;
31442;SDS011;18065;55.876;9.830;2023-10-09T01:18:59;2.83;;;1.25;;
31442;SDS011;18065;55.876;9.830;2023-10-09T01:21:38;2.47;;;1.35;;
31442;SDS011;18065;55.876;9.830;2023-10-09T01:24:10;1.75;;;1.50;;
31442;SDS011;18065;55.876;9.830;2023-10-09T01:26:41;2.97;;;1.30;;
31442;SDS011;18065;55.876;9.830;2023-10-09T01:29:13;2.78;;;1.80;;
31442;SDS011;18065;55.876;9.830;2023-10-09T01:31:44;2.70;;;1.40;;
31442;SDS011;18065;55.876;9.830;2023-10-09T01:34:17;2.05;;;1.15;;
31442;SDS011;18065;55.876;9.830;2023-10-09T01:36:49;3.10;;;1.60;;
31442;SDS011;18065;55.876;9.830;2023-10-09T01:39:23;1.70;;;1.45;;
31442;SDS011;18065;55.876;9.830;2023-10-09T01:41:53;2.00;;;1.35;;
31442;SDS011;18065;55.876;9.830;2023-10-09T01:46:59;3.22;;;1.52;;
31442;SDS011;18065;55.876;9.830;2023-10-09T01:49:32;5.15;;;1.50;;
31442;SDS011;18065;55.876;9.830;2023-10-09T01:52:02;2.83;;;1.50;;
31442;SDS011;18065;55.876;9.830;2023-10-09T01:54:37;2.70;;;1.42;;
31442;SDS011;18065;55.876;9.830;2023-10-09T01:57:07;2.35;;;1.42;;
31442;SDS011;18065;55.876;9.830;2023-10-09T01:59:41;2.95;;;1.30;;
31442;SDS011;18065;55.876;9.830;2023-10-09T02:02:14;3.50;;;1.27;;
31442;SDS011;18065;55.876;9.830;2023-10-09T02:04:59;2.40;;;1.42;;
31442;SDS011;18065;55.876;9.830;2023-10-09T02:07:35;1.52;;;1.25;;
31442;SDS011;18065;55.876;9.830;2023-10-09T02:10:13;1.58;;;1.30;;
31442;SDS011;18065;55.876;9.830;2023-10-09T02:12:56;3.22;;;1.30;;
31442;SDS011;18065;55.876;9.830;2023-10-09T02:15:32;3.17;;;1.48;;
31442;SDS011;18065;55.876;9.830;2023-10-09T02:18:14;2.47;;;1.40;;
31442;SDS011;18065;55.876;9.830;2023-10-09T02:20:52;4.65;;;1.48;;
31442;SDS011;18065;55.876;9.830;2023-10-09T02:23:38;1.63;;;1.23;;
31442;SDS011;18065;55.876;9.830;2023-10-09T02:26:13;5.20;;;1.42;;
31442;SDS011;18065;55.876;9.830;2023-10-09T02:28:50;1.83;;;1.30;;
31442;SDS011;18065;55.876;9.830;2023-10-09T02:31:24;1.70;;;1.10;;
31442;SDS011;18065;55.876;9.830;2023-10-09T02:34:00;3.17;;;1.50;;
31442;SDS011;18065;55.876;9.830;2023-10-09T02:36:30;2.38;;;1.17;;
31442;SDS011;18065;55.876;9.830;2023-10-09T02:39:00;2.22;;;1.40;;
31442;SDS011;18065;55.876;9.830;2023-10-09T02:41:33;4.07;;;1.52;;
31442;SDS011;18065;55.876;9.830;2023-10-09T02:44:03;2.15;;;1.13;;
31442;SDS011;18065;55.876;9.830;2023-10-09T02:46:36;3.22;;;1.58;;
31442;SDS011;18065;55.876;9.830;2023-10-09T02:49:05;1.63;;;1.40;;
31442;SDS011;18065;55.876;9.830;2023-10-09T02:51:35;2.20;;;1.17;;
31442;SDS011;18065;55.876;9.830;2023-10-09T02:54:07;2.53;;;1.30;;
31442;SDS011;18065;55.876;9.830;2023-10-09T02:56:46;2.58;;;1.23;;
31442;SDS011;18065;55.876;9.830;2023-10-09T02:59:21;2.28;;;1.15;;
31442;SDS011;18065;55.876;9.830;2023-10-09T03:01:50;1.75;;;1.08;;
31442;SDS011;18065;55.876;9.830;2023-10-09T03:04:19;3.65;;;1.50;;
31442;SDS011;18065;55.876;9.830;2023-10-09T03:06:48;2.05;;;1.30;;
31442;SDS011;18065;55.876;9.830;2023-10-09T03:09:18;1.45;;;1.35;;
31442;SDS011;18065;55.876;9.830;2023-10-09T03:11:55;3.08;;;1.30;;
31442;SDS011;18065;55.876;9.830;2023-10-09T03:14:27;5.25;;;1.38;;
31442;SDS011;18065;55.876;9.830;2023-10-09T03:16:57;2.17;;;1.20;;
31442;SDS011;18065;55.876;9.830;2023-10-09T03:19:26;2.55;;;1.33;;
31442;SDS011;18065;55.876;9.830;2023-10-09T03:21:56;1.85;;;1.50;;
31442;SDS011;18065;55.876;9.830;2023-10-09T03:24:25;4.18;;;1.20;;
31442;SDS011;18065;55.876;9.830;2023-10-09T03:26:58;2.83;;;1.10;;
31442;SDS011;18065;55.876;9.830;2023-10-09T03:29:27;2.03;;;1.10;;
31442;SDS011;18065;55.876;9.830;2023-10-09T03:31:56;3.78;;;1.30;;
31442;SDS011;18065;55.876;9.830;2023-10-09T03:34:25;3.58;;;1.42;;
31442;SDS011;18065;55.876;9.830;2023-10-09T03:36:56;2.30;;;1.10;;
31442;SDS011;18065;55.876;9.830;2023-10-09T03:39:29;3.92;;;1.30;;
31442;SDS011;18065;55.876;9.830;2023-10-09T03:42:12;2.00;;;1.13;;
31442;SDS011;18065;55.876;9.830;2023-10-09T03:44:44;4.63;;;1.40;;
31442;SDS011;18065;55.876;9.830;2023-10-09T03:47:17;2.58;;;1.17;;
31442;SDS011;18065;55.876;9.830;2023-10-09T03:49:47;2.47;;;1.25;;
31442;SDS011;18065;55.876;9.830;2023-10-09T03:52:16;1.58;;;1.13;;
31442;SDS011;18065;55.876;9.830;2023-10-09T03:54:45;3.63;;;1.40;;
31442;SDS011;18065;55.876;9.830;2023-10-09T03:57:17;3.85;;;1.13;;
31442;SDS011;18065;55.876;9.830;2023-10-09T03:59:46;2.05;;;1.25;;
31442;SDS011;18065;55.876;9.830;2023-10-09T04:02:16;2.95;;;1.20;;
31442;SDS011;18065;55.876;9.830;2023-10-09T04:04:47;4.57;;;1.60;;
31442;SDS011;18065;55.876;9.830;2023-10-09T04:07:16;2.10;;;1.23;;
31442;SDS011;18065;55.876;9.830;2023-10-09T04:09:46;2.17;;;1.27;;
31442;SDS011;18065;55.876;9.830;2023-10-09T04:12:30;2.92;;;1.17;;
31442;SDS011;18065;55.876;9.830;2023-10-09T04:14:59;1.98;;;1.50;;
31442;SDS011;18065;55.876;9.830;2023-10-09T04:17:30;3.05;;;1.10;;
31442;SDS011;18065;55.876;9.830;2023-10-09T04:20:08;2.83;;;1.23;;
31442;SDS011;18065;55.876;9.830;2023-10-09T04:22:55;2.80;;;1.60;;
31442;SDS011;18065;55.876;9.830;2023-10-09T04:25:30;2.65;;;1.15;;
31442;SDS011;18065;55.876;9.830;2023-10-09T04:28:13;2.97;;;1.35;;
31442;SDS011;18065;55.876;9.830;2023-10-09T04:30:47;1.52;;;1.02;;
31442;SDS011;18065;55.876;9.830;2023-10-09T04:33:18;2.15;;;1.40;;
31442;SDS011;18065;55.876;9.830;2023-10-09T04:36:06;1.95;;;1.30;;
31442;SDS011;18065;55.876;9.830;2023-10-09T04:38:47;2.63;;;1.23;;
31442;SDS011;18065;55.876;9.830;2023-10-09T04:41:41;2.80;;;0.98;;
31442;SDS011;18065;55.876;9.830;2023-10-09T04:44:42;2.78;;;1.00;;
31442;SDS011;18065;55.876;9.830;2023-10-09T04:47:25;4.10;;;1.55;;
31442;SDS011;18065;55.876;9.830;2023-10-09T04:50:01;2.88;;;1.60;;
31442;SDS011;18065;55.876;9.830;2023-10-09T04:52:34;3.33;;;1.25;;
31442;SDS011;18065;55.876;9.830;2023-10-09T04:55:16;3.30;;;1.27;;
31442;SDS011;18065;55.876;9.830;2023-10-09T04:57:50;1.95;;;1.40;;
31442;SDS011;18065;55.876;9.830;2023-10-09T05:00:41;4.18;;;1.58;;
31442;SDS011;18065;55.876;9.830;2023-10-09T05:03:36;2.38;;;1.38;;
31442;SDS011;18065;55.876;9.830;2023-10-09T05:06:22;3.33;;;1.42;;
31442;SDS011;18065;55.876;9.830;2023-10-09T05:09:05;3.80;;;1.50;;
31442;SDS011;18065;55.876;9.830;2023-10-09T05:11:40;1.73;;;1.08;;
31442;SDS011;18065;55.876;9.830;2023-10-09T05:14:20;4.97;;;1.30;;
31442;SDS011;18065;55.876;9.830;2023-10-09T05:17:07;6.22;;;1.60;;
31442;SDS011;18065;55.876;9.830;2023-10-09T05:19:40;3.38;;;1.58;;
31442;SDS011;18065;55.876;9.830;2023-10-09T05:22:19;5.90;;;1.65;;
31442;SDS011;18065;55.876;9.830;2023-10-09T05:24:56;7.13;;;1.52;;
31442;SDS011;18065;55.876;9.830;2023-10-09T05:27:25;4.03;;;1.50;;
31442;SDS011;18065;55.876;9.830;2023-10-09T05:30:07;4.22;;;1.50;;
31442;SDS011;18065;55.876;9.830;2023-10-09T05:32:51;6.38;;;1.42;;
31442;SDS011;18065;55.876;9.830;2023-10-09T05:35:23;4.32;;;1.67;;
31442;SDS011;18065;55.876;9.830;2023-10-09T05:38:06;6.03;;;1.60;;
31442;SDS011;18065;55.876;9.830;2023-10-09T05:40:48;6.10;;;1.52;;
31442;SDS011;18065;55.876;9.830;2023-10-09T05:43:19;5.35;;;1.80;;
31442;SDS011;18065;55.876;9.830;2023-10-09T05:46:00;2.50;;;1.30;;
31442;SDS011;18065;55.876;9.830;2023-10-09T05:48:42;6.07;;;1.75;;
31442;SDS011;18065;55.876;9.830;2023-10-09T05:51:19;8.10;;;1.80;;
31442;SDS011;18065;55.876;9.830;2023-10-09T05:54:02;5.75;;;1.40;;
31442;SDS011;18065;55.876;9.830;2023-10-09T05:57:00;4.68;;;1.50;;
31442;SDS011;18065;55.876;9.830;2023-10-09T05:59:55;8.75;;;1.70;;
31442;SDS011;18065;55.876;9.830;2023-10-09T06:02:36;5.03;;;1.40;;
31442;SDS011;18065;55.876;9.830;2023-10-09T06:05:19;10.82;;;1.73;;
31442;SDS011;18065;55.876;9.830;2023-10-09T06:08:00;2.70;;;1.40;;
31442;SDS011;18065;55.876;9.830;2023-10-09T06:10:38;7.78;;;1.45;;
31442;SDS011;18065;55.876;9.830;2023-10-09T06:13:07;6.15;;;1.63;;
31442;SDS011;18065;55.876;9.830;2023-10-09T06:15:58;3.78;;;1.10;;
31442;SDS011;18065;55.876;9.830;2023-10-09T06:18:39;3.42;;;1.40;;
31442;SDS011;18065;55.876;9.830;2023-10-09T06:21:21;4.90;;;1.73;;
31442;SDS011;18065;55.876;9.830;2023-10-09T06:24:06;3.95;;;1.50;;
31442;SDS011;18065;55.876;9.830;2023-10-09T06:26:43;2.65;;;1.40;;
31442;SDS011;18065;55.876;9.830;2023-10-09T06:32:16;4.78;;;1.42;;
31442;SDS011;18065;55.876;9.830;2023-10-09T06:35:02;3.78;;;1.40;;
31442;SDS011;18065;55.876;9.830;2023-10-09T06:37:50;5.03;;;1.30;;
31442;SDS011;18065;55.876;9.830;2023-10-09T06:40:31;4.25;;;1.50;;
31442;SDS011;18065;55.876;9.830;2023-10-09T06:43:13;3.75;;;1.10;;
31442;SDS011;18065;55.876;9.830;2023-10-09T06:45:52;4.72;;;1.55;;
31442;SDS011;18065;55.876;9.830;2023-10-09T06:48:23;2.90;;;1.35;;
31442;SDS011;18065;55.876;9.830;2023-10-09T06:51:05;3.78;;;1.35;;
31442;SDS011;18065;55.876;9.830;2023-10-09T06:53:41;3.85;;;1.58;;
31442;SDS011;18065;55.876;9.830;2023-10-09T06:56:31;5.15;;;1.35;;
31442;SDS011;18065;55.876;9.830;2023-10-09T06:59:11;3.95;;;1.42;;
31442;SDS011;18065;55.876;9.830;2023-10-09T07:01:47;3.15;;;1.30;;
31442;SDS011;18065;55.876;9.830;2023-10-09T07:04:35;2.33;;;1.20;;
31442;SDS011;18065;55.876;9.830;2023-10-09T07:07:19;2.60;;;1.25;;
31442;SDS011;18065;55.876;9.830;2023-10-09T07:09:52;1.15;;;0.90;;
31442;SDS011;18065;55.876;9.830;2023-10-09T07:12:33;3.50;;;1.50;;
31442;SDS011;18065;55.876;9.830;2023-10-09T07:15:08;2.33;;;1.10;;
31442;SDS011;18065;55.876;9.830;2023-10-09T07:18:01;1.40;;;1.08;;
31442;SDS011;18065;55.876;9.830;2023-10-09T07:20:44;2.30;;;1.05;;
31442;SDS011;18065;55.876;9.830;2023-10-09T07:23:24;2.38;;;1.00;;
31442;SDS011;18065;55.876;9.830;2023-10-09T07:26:03;2.60;;;1.25;;
31442;SDS011;18065;55.876;9.830;2023-10-09T07:28:48;5.75;;;1.23;;
31442;SDS011;18065;55.876;9.830;2023-10-09T07:31:18;5.63;;;1.42;;
31442;SDS011;18065;55.876;9.830;2023-10-09T07:33:55;4.50;;;1.30;;
31442;SDS011;18065;55.876;9.830;2023-10-09T07:36:46;8.43;;;1.67;;
31442;SDS011;18065;55.876;9.830;2023-10-09T07:39:15;3.30;;;1.33;;
31442;SDS011;18065;55.876;9.830;2023-10-09T07:41:50;5.85;;;1.23;;
31442;SDS011;18065;55.876;9.830;2023-10-09T07:44:40;3.35;;;1.10;;
31442;SDS011;18065;55.876;9.830;2023-10-09T07:47:18;1.83;;;0.98;;
31442;SDS011;18065;55.876;9.830;2023-10-09T07:49:48;4.65;;;1.27;;
31442;SDS011;18065;55.876;9.830;2023-10-09T07:52:24;5.28;;;1.20;;
31442;SDS011;18065;55.876;9.830;2023-10-09T07:54:54;4.55;;;1.42;;
31442;SDS011;18065;55.876;9.830;2023-10-09T07:57:30;7.05;;;1.40;;
31442;SDS011;18065;55.876;9.830;2023-10-09T08:00:07;5.18;;;1.30;;
31442;SDS011;18065;55.876;9.830;2023-10-09T08:02:55;3.22;;;1.25;;
31442;SDS011;18065;55.876;9.830;2023-10-09T08:05:25;2.80;;;1.17;;
31442;SDS011;18065;55.876;9.830;2023-10-09T08:07:58;3.35;;;1.20;;
31442;SDS011;18065;55.876;9.830;2023-10-09T08:13:41;2.15;;;1.00;;
31442;SDS011;18065;55.876;9.830;2023-10-09T08:16:22;2.45;;;1.38;;
31442;SDS011;18065;55.876;9.830;2023-10-09T08:19:01;3.67;;;1.15;;
31442;SDS011;18065;55.876;9.830;2023-10-09T08:21:50;2.10;;;1.10;;
31442;SDS011;18065;55.876;9.830;2023-10-09T08:24:42;3.33;;;1.23;;
31442;SDS011;18065;55.876;9.830;2023-10-09T08:27:21;2.67;;;1.25;;
31442;SDS011;18065;55.876;9.830;2023-10-09T08:30:14;1.65;;;1.00;;
31442;SDS011;18065;55.876;9.830;2023-10-09T08:32:53;2.40;;;1.00;;
31442;SDS011;18065;55.876;9.830;2023-10-09T08:35:29;1.30;;;0.90;;
31442;SDS011;18065;55.876;9.830;2023-10-09T08:37:56;2.97;;;1.08;;
31442;SDS011;18065;55.876;9.830;2023-10-09T08:40:31;2.77;;;1.23;;
31442;SDS011;18065;55.876;9.830;2023-10-09T08:43:05;3.17;;;1.17;;
31442;SDS011;18065;55.876;9.830;2023-10-09T08:45:41;2.83;;;1.10;;
31442;SDS011;18065;55.876;9.830;2023-10-09T08:48:13;1.60;;;1.10;;
31442;SDS011;18065;55.876;9.830;2023-10-09T08:50:43;3.03;;;1.20;;
31442;SDS011;18065;55.876;9.830;2023-10-09T08:53:15;1.45;;;0.80;;
31442;SDS011;18065;55.876;9.830;2023-10-09T08:55:44;3.28;;;0.98;;
31442;SDS011;18065;55.876;9.830;2023-10-09T08:58:14;1.23;;;0.90;;
31442;SDS011;18065;55.876;9.830;2023-10-09T09:00:48;1.73;;;1.10;;
31442;SDS011;18065;55.876;9.830;2023-10-09T09:03:17;2.95;;;1.10;;
31442;SDS011;18065;55.876;9.830;2023-10-09T09:05:48;1.30;;;0.90;;
31442;SDS011;18065;55.876;9.830;2023-10-09T09:08:26;2.72;;;0.98;;
31442;SDS011;18065;55.876;9.830;2023-10-09T09:10:58;1.92;;;1.00;;
31442;SDS011;18065;55.876;9.830;2023-10-09T09:13:37;2.45;;;1.10;;
31442;SDS011;18065;55.876;9.830;2023-10-09T09:16:15;2.83;;;1.00;;
31442;SDS011;18065;55.876;9.830;2023-10-09T09:18:52;4.18;;;0.90;;
31442;SDS011;18065;55.876;9.830;2023-10-09T09:21:26;1.85;;;0.88;;
31442;SDS011;18065;55.876;9.830;2023-10-09T09:23:55;3.17;;;1.17;;
31442;SDS011;18065;55.876;9.830;2023-10-09T09:26:33;1.08;;;0.70;;
31442;SDS011;18065;55.876;9.830;2023-10-09T09:29:10;2.13;;;1.17;;
31442;SDS011;18065;55.876;9.830;2023-10-09T09:31:54;1.87;;;0.90;;
31442;SDS011;18065;55.876;9.830;2023-10-09T09:34:33;2.13;;;0.95;;
31442;SDS011;18065;55.876;9.830;2023-10-09T09:37:14;2.47;;;0.82;;
31442;SDS011;18065;55.876;9.830;2023-10-09T09:39:53;2.17;;;0.90;;
31442;SDS011;18065;55.876;9.830;2023-10-09T09:42:22;1.75;;;0.95;;
31442;SDS011;18065;55.876;9.830;2023-10-09T09:44:52;1.38;;;0.80;;
31442;SDS011;18065;55.876;9.830;2023-10-09T09:47:25;2.20;;;0.85;;
31442;SDS011;18065;55.876;9.830;2023-10-09T09:49:55;3.10;;;1.00;;
31442;SDS011;18065;55.876;9.830;2023-10-09T09:52:36;1.42;;;0.70;;
31442;SDS011;18065;55.876;9.830;2023-10-09T09:55:07;2.95;;;1.00;;
31442;SDS011;18065;55.876;9.830;2023-10-09T09:57:41;1.48;;;0.95;;
31442;SDS011;18065;55.876;9.830;2023-10-09T10:00:16;1.58;;;0.82;;
31442;SDS011;18065;55.876;9.830;2023-10-09T10:03:00;1.67;;;1.00;;
31442;SDS011;18065;55.876;9.830;2023-10-09T10:05:34;1.92;;;0.98;;
31442;SDS011;18065;55.876;9.830;2023-10-09T10:08:05;0.80;;;0.80;;
31442;SDS011;18065;55.876;9.830;2023-10-09T10:10:38;3.50;;;1.20;;
31442;SDS011;18065;55.876;9.830;2023-10-09T10:13:13;2.45;;;0.77;;
31442;SDS011;18065;55.876;9.830;2023-10-09T10:16:00;1.90;;;0.80;;
31442;SDS011;18065;55.876;9.830;2023-10-09T10:21:25;1.85;;;0.88;;
31442;SDS011;18065;55.876;9.830;2023-10-09T10:24:08;2.78;;;0.60;;
31442;SDS011;18065;55.876;9.830;2023-10-09T10:27:23;1.17;;;0.70;;
31442;SDS011;18065;55.876;9.830;2023-10-09T10:32:57;1.33;;;0.82;;
31442;SDS011;18065;55.876;9.830;2023-10-09T10:35:37;2.92;;;0.77;;
31442;SDS011;18065;55.876;9.830;2023-10-09T10:38:27;1.65;;;1.00;;
31442;SDS011;18065;55.876;9.830;2023-10-09T10:41:08;1.70;;;0.90;;
31442;SDS011;18065;55.876;9.830;2023-10-09T10:46:23;1.08;;;0.80;;
31442;SDS011;18065;55.876;9.830;2023-10-09T10:49:04;1.20;;;0.73;;
31442;SDS011;18065;55.876;9.830;2023-10-09T10:51:48;1.35;;;0.80;;
31442;SDS011;18065;55.876;9.830;2023-10-09T10:54:26;0.98;;;0.75;;
31442;SDS011;18065;55.876;9.830;2023-10-09T10:57:20;0.98;;;0.80;;
31442;SDS011;18065;55.876;9.830;2023-10-09T11:00:18;1.95;;;0.90;;
31442;SDS011;18065;55.876;9.830;2023-10-09T11:02:59;1.70;;;0.90;;
31442;SDS011;18065;55.876;9.830;2023-10-09T11:05:39;1.83;;;0.90;;
31442;SDS011;18065;55.876;9.830;2023-10-09T11:08:12;1.35;;;0.80;;
31442;SDS011;18065;55.876;9.830;2023-10-09T11:10:41;1.35;;;0.80;;
31442;SDS011;18065;55.876;9.830;2023-10-09T11:13:22;2.75;;;0.70;;
31442;SDS011;18065;55.876;9.830;2023-10-09T11:15:58;1.75;;;0.90;;
31442;SDS011;18065;55.876;9.830;2023-10-09T11:18:39;2.15;;;0.70;;
31442;SDS011;18065;55.876;9.830;2023-10-09T11:21:12;0.70;;;0.68;;
31442;SDS011;18065;55.876;9.830;2023-10-09T11:23:56;1.98;;;0.90;;
31442;SDS011;18065;55.876;9.830;2023-10-09T11:26:47;2.00;;;0.80;;
31442;SDS011;18065;55.876;9.830;2023-10-09T11:32:01;0.95;;;0.60;;
31442;SDS011;18065;55.876;9.830;2023-10-09T11:34:30;1.50;;;0.85;;
31442;SDS011;18065;55.876;9.830;2023-10-09T11:37:01;1.02;;;0.60;;
31442;SDS011;18065;55.876;9.830;2023-10-09T11:39:32;0.73;;;0.70;;
31442;SDS011;18065;55.876;9.830;2023-10-09T11:42:02;2.00;;;0.80;;
31442;SDS011;18065;55.876;9.830;2023-10-09T11:44:35;0.93;;;0.75;;
31442;SDS011;18065;55.876;9.830;2023-10-09T11:47:04;1.00;;;0.60;;
31442;SDS011;18065;55.876;9.830;2023-10-09T11:49:49;0.95;;;0.73;;
31442;SDS011;18065;55.876;9.830;2023-10-09T11:52:28;1.10;;;0.65;;
31442;SDS011;18065;55.876;9.830;2023-10-09T11:55:06;1.08;;;0.63;;
31442;SDS011;18065;55.876;9.830;2023-10-09T11:57:40;0.85;;;0.65;;
31442;SDS011;18065;55.876;9.830;2023-10-09T12:00:09;2.83;;;1.00;;
31442;SDS011;18065;55.876;9.830;2023-10-09T12:02:50;1.60;;;0.60;;
31442;SDS011;18065;55.876;9.830;2023-10-09T12:05:19;1.30;;;0.68;;
31442;SDS011;18065;55.876;9.830;2023-10-09T12:07:48;2.70;;;0.82;;
31442;SDS011;18065;55.876;9.830;2023-10-09T12:10:22;1.27;;;0.70;;
31442;SDS011;18065;55.876;9.830;2023-10-09T12:12:52;5.22;;;0.80;;
31442;SDS011;18065;55.876;9.830;2023-10-09T12:15:23;3.38;;;1.00;;
31442;SDS011;18065;55.876;9.830;2023-10-09T12:18:02;2.00;;;1.00;;
31442;SDS011;18065;55.876;9.830;2023-10-09T12:20:32;1.70;;;0.70;;
31442;SDS011;18065;55.876;9.830;2023-10-09T12:23:02;1.52;;;0.95;;
31442;SDS011;18065;55.876;9.830;2023-10-09T12:25:35;0.90;;;0.80;;
31442;SDS011;18065;55.876;9.830;2023-10-09T12:28:04;2.35;;;0.60;;
31442;SDS011;18065;55.876;9.830;2023-10-09T12:30:37;1.70;;;1.10;;
31442;SDS011;18065;55.876;9.830;2023-10-09T12:33:07;1.58;;;0.80;;
31442;SDS011;18065;55.876;9.830;2023-10-09T12:35:37;1.48;;;0.70;;
31442;SDS011;18065;55.876;9.830;2023-10-09T12:38:07;3.22;;;1.13;;
31442;SDS011;18065;55.876;9.830;2023-10-09T12:40:46;2.28;;;0.65;;
31442;SDS011;18065;55.876;9.830;2023-10-09T12:43:18;1.00;;;0.75;;
31442;SDS011;18065;55.876;9.830;2023-10-09T12:45:48;2.63;;;0.77;;
31442;SDS011;18065;55.876;9.830;2023-10-09T12:48:22;1.15;;;0.77;;
31442;SDS011;18065;55.876;9.830;2023-10-09T12:50:50;2.33;;;0.63;;
31442;SDS011;18065;55.876;9.830;2023-10-09T12:53:19;0.88;;;0.70;;
31442;SDS011;18065;55.876;9.830;2023-10-09T12:55:50;2.58;;;0.60;;
31442;SDS011;18065;55.876;9.830;2023-10-09T12:58:21;3.80;;;0.88;;
31442;SDS011;18065;55.876;9.830;2023-10-09T13:00:52;2.58;;;0.90;;
31442;SDS011;18065;55.876;9.830;2023-10-09T13:03:20;2.15;;;0.80;;
31442;SDS011;18065;55.876;9.830;2023-10-09T13:05:53;2.08;;;0.73;;
31442;SDS011;18065;55.876;9.830;2023-10-09T13:08:23;1.10;;;0.70;;
31442;SDS011;18065;55.876;9.830;2023-10-09T13:11:01;1.25;;;0.73;;
31442;SDS011;18065;55.876;9.830;2023-10-09T13:13:36;2.28;;;0.60;;
31442;SDS011;18065;55.876;9.830;2023-10-09T13:16:08;3.03;;;0.98;;
31442;SDS011;18065;55.876;9.830;2023-10-09T13:18:46;2.38;;;0.80;;
31442;SDS011;18065;55.876;9.830;2023-10-09T13:21:18;1.98;;;0.80;;
31442;SDS011;18065;55.876;9.830;2023-10-09T13:23:47;0.93;;;0.80;;
31442;SDS011;18065;55.876;9.830;2023-10-09T13:26:19;2.28;;;0.80;;
31442;SDS011;18065;55.876;9.830;2023-10-09T13:28:55;2.92;;;0.88;;
31442;SDS011;18065;55.876;9.830;2023-10-09T13:31:25;1.70;;;0.80;;
31442;SDS011;18065;55.876;9.830;2023-10-09T13:33:57;1.83;;;0.65;;
31442;SDS011;18065;55.876;9.830;2023-10-09T13:36:26;2.33;;;0.70;;
31442;SDS011;18065;55.876;9.830;2023-10-09T13:38:56;0.93;;;0.80;;
31442;SDS011;18065;55.876;9.830;2023-10-09T13:41:34;2.47;;;0.88;;
31442;SDS011;18065;55.876;9.830;2023-10-09T13:44:06;3.25;;;0.80;;
31442;SDS011;18065;55.876;9.830;2023-10-09T13:46:34;4.75;;;1.00;;
31442;SDS011;18065;55.876;9.830;2023-10-09T13:49:06;2.60;;;0.90;;
31442;SDS011;18065;55.876;9.830;2023-10-09T13:51:37;2.05;;;0.90;;
31442;SDS011;18065;55.876;9.830;2023-10-09T13:54:09;2.75;;;0.70;;
31442;SDS011;18065;55.876;9.830;2023-10-09T13:56:47;2.05;;;0.90;;
31442;SDS011;18065;55.876;9.830;2023-10-09T13:59:18;2.42;;;1.05;;
31442;SDS011;18065;55.876;9.830;2023-10-09T14:01:48;1.67;;;0.82;;
31442;SDS011;18065;55.876;9.830;2023-10-09T14:04:20;3.65;;;0.80;;
31442;SDS011;18065;55.876;9.830;2023-10-09T14:06:48;4.10;;;0.90;;
31442;SDS011;18065;55.876;9.830;2023-10-09T14:09:22;5.53;;;0.95;;
31442;SDS011;18065;55.876;9.830;2023-10-09T14:12:00;3.22;;;0.90;;
31442;SDS011;18065;55.876;9.830;2023-10-09T14:14:35;3.53;;;0.93;;
31442;SDS011;18065;55.876;9.830;2023-10-09T14:17:12;1.08;;;0.80;;
31442;SDS011;18065;55.876;9.830;2023-10-09T14:19:46;1.90;;;0.90;;
31442;SDS011;18065;55.876;9.830;2023-10-09T14:22:16;2.13;;;0.73;;
31442;SDS011;18065;55.876;9.830;2023-10-09T14:24:47;2.88;;;0.90;;
31442;SDS011;18065;55.876;9.830;2023-10-09T14:27:23;4.22;;;1.00;;
31442;SDS011;18065;55.876;9.830;2023-10-09T14:29:55;3.08;;;1.00;;
31442;SDS011;18065;55.876;9.830;2023-10-09T14:32:24;2.55;;;1.00;;
31442;SDS011;18065;55.876;9.830;2023-10-09T14:34:54;1.17;;;0.80;;
31442;SDS011;18065;55.876;9.830;2023-10-09T14:37:26;3.20;;;0.90;;
31442;SDS011;18065;55.876;9.830;2023-10-09T14:39:56;1.88;;;0.90;;
31442;SDS011;18065;55.876;9.830;2023-10-09T14:42:27;2.00;;;0.90;;
31442;SDS011;18065;55.876;9.830;2023-10-09T14:44:56;2.35;;;0.82;;
31442;SDS011;18065;55.876;9.830;2023-10-09T14:47:25;1.27;;;0.80;;
31442;SDS011;18065;55.876;9.830;2023-10-09T14:49:53;1.63;;;0.85;;
31442;SDS011;18065;55.876;9.830;2023-10-09T14:52:26;1.15;;;0.60;;
31442;SDS011;18065;55.876;9.830;2023-10-09T14:54:55;1.83;;;1.00;;
31442;SDS011;18065;55.876;9.830;2023-10-09T14:57:28;0.80;;;0.60;;
31442;SDS011;18065;55.876;9.830;2023-10-09T14:59:58;1.77;;;0.90;;
31442;SDS011;18065;55.876;9.830;2023-10-09T15:02:32;2.58;;;0.88;;
31442;SDS011;18065;55.876;9.830;2023-10-09T15:05:01;3.47;;;1.00;;
31442;SDS011;18065;55.876;9.830;2023-10-09T15:07:30;1.35;;;0.82;;
31442;SDS011;18065;55.876;9.830;2023-10-09T15:09:59;1.60;;;0.90;;
31442;SDS011;18065;55.876;9.830;2023-10-09T15:12:31;1.92;;;0.77;;
31442;SDS011;18065;55.876;9.830;2023-10-09T15:15:05;1.67;;;0.80;;
31442;SDS011;18065;55.876;9.830;2023-10-09T15:20:09;3.97;;;0.88;;
31442;SDS011;18065;55.876;9.830;2023-10-09T15:22:40;2.75;;;0.93;;
31442;SDS011;18065;55.876;9.830;2023-10-09T15:25:09;1.00;;;0.50;;
31442;SDS011;18065;55.876;9.830;2023-10-09T15:27:42;1.25;;;0.70;;
31442;SDS011;18065;55.876;9.830;2023-10-09T15:30:13;1.60;;;0.98;;
31442;SDS011;18065;55.876;9.830;2023-10-09T15:32:42;1.65;;;0.77;;
31442;SDS011;18065;55.876;9.830;2023-10-09T15:35:11;1.40;;;0.65;;
31442;SDS011;18065;55.876;9.830;2023-10-09T15:37:41;1.15;;;0.85;;
31442;SDS011;18065;55.876;9.830;2023-10-09T15:40:11;1.42;;;0.75;;
31442;SDS011;18065;55.876;9.830;2023-10-09T15:42:46;1.23;;;0.82;;
31442;SDS011;18065;55.876;9.830;2023-10-09T15:45:15;1.00;;;0.60;;
31442;SDS011;18065;55.876;9.830;2023-10-09T15:47:46;2.25;;;0.95;;
31442;SDS011;18065;55.876;9.830;2023-10-09T15:50:16;1.67;;;0.70;;
31442;SDS011;18065;55.876;9.830;2023-10-09T15:52:45;0.98;;;0.80;;
31442;SDS011;18065;55.876;9.830;2023-10-09T15:55:17;1.88;;;0.90;;
31442;SDS011;18065;55.876;9.830;2023-10-09T15:57:48;1.35;;;0.75;;
31442;SDS011;18065;55.876;9.830;2023-10-09T16:00:17;1.55;;;0.80;;